Аэропорт: Казань. Казань

ICAO: UWKD

METAR:
2020-10-19 22:30:00
UWKD 192230Z 21003MPS 9999 SCT039 01/M01 Q1011 R29/60D NOSIG RMK QFE747/0996
METAR:
2020-10-19 20:01:00
TAF UWKD 192001Z 1921/2021 23003MPS 3100 BR SCT016 TX07/2011Z TNM01/2002Z TEMPO 1921/2005 0500 FZFG VV002 FM200600 25005G12MPS 9999 BKN020 TEMPO 2008/2015 26008G15MPS